Time;durP1;ratioP1;P1;durP2;ratioP2;P2;SDS_P1;SDS_P2;PMS_P1;PMS_P2;Temp;Humidity;BMP_temperature;BMP_pressure;BME280_temperature;BME280_humidity;BME280_pressure;Samples;Min_cycle;Max_cycle;Signal;HPM_P1;HPM_P2
2022/02/04 00:23:37;;;;;;;9.88;7.60;;;;;;;5.85;64.62;99692.47;10481700;28;20040;-67
2022/02/04 00:34:17;;;;;;;9.38;7.55;;;;;;;5.88;64.38;99703.53;10473221;28;20055;-67
2022/02/04 00:39:30;;;;;;;9.40;7.47;;;;;;;5.86;64.46;99701.94;10474857;28;20053;-67
2022/02/04 00:44:32;;;;;;;11.25;7.55;;;;;;;5.80;64.51;99703.03;10475274;28;20078;-66
2022/02/04 00:50:50;;;;;;;9.75;7.45;;;;;;;5.93;64.14;99692.97;10475190;28;20056;-66
2022/02/04 00:55:28;;;;;;;9.23;7.18;;;;;;;5.94;64.34;99692.88;10470981;28;20049;-66
2022/02/04 01:27:14;;;;;;;11.50;8.50;;;;;;;6.07;63.58;99693.19;10473394;28;20114;-67
2022/02/04 01:32:16;;;;;;;11.27;8.55;;;;;;;6.13;63.25;99700.69;10471986;28;20056;-67
2022/02/04 01:37:18;;;;;;;11.30;8.77;;;;;;;6.20;63.22;99707.31;10473502;28;20746;-67
2022/02/04 01:42:20;;;;;;;13.02;9.10;;;;;;;6.14;63.23;99705.00;10472039;28;20408;-67
2022/02/04 01:47:22;;;;;;;13.52;8.75;;;;;;;6.15;63.18;99702.31;10472374;28;20571;-67
2022/02/04 01:52:24;;;;;;;12.20;8.65;;;;;;;6.08;63.43;99693.09;10481532;28;20059;-67
2022/02/04 01:57:25;;;;;;;11.88;8.63;;;;;;;6.19;63.12;99687.44;10472316;28;20139;-67
2022/02/04 02:02:27;;;;;;;11.63;9.10;;;;;;;6.12;63.21;99686.84;10471953;28;20515;-67
2022/02/04 02:07:31;;;;;;;12.88;9.60;;;;;;;6.13;63.08;99669.53;10472097;28;20488;-66
2022/02/04 02:13:04;;;;;;;13.90;10.05;;;;;;;6.16;63.11;99659.88;10471794;28;20066;-66
2022/02/04 02:34:47;;;;;;;11.38;8.98;;;;;;;6.14;62.95;99656.47;10471232;28;20049;-66
2022/02/04 03:00:10;;;;;;;12.10;8.32;;;;;;;6.20;62.74;99656.22;10469975;28;20064;-66
2022/02/04 03:05:11;;;;;;;11.90;8.45;;;;;;;6.25;62.74;99656.03;10477391;28;20157;-67
2022/02/04 03:10:13;;;;;;;12.68;8.95;;;;;;;6.21;62.59;99649.25;10477474;28;20052;-67
2022/02/04 03:15:15;;;;;;;11.95;8.60;;;;;;;6.22;62.82;99659.59;10476723;28;20064;-67
2022/02/04 03:20:17;;;;;;;11.52;8.50;;;;;;;6.23;62.53;99652.63;10476652;28;20056;-66
2022/02/04 03:25:22;;;;;;;11.48;8.80;;;;;;;6.27;62.61;99656.78;10474662;28;20044;-66
2022/02/04 03:30:31;;;;;;;10.32;7.80;;;;;;;6.22;62.53;99656.16;10474689;28;20132;-67
2022/02/04 03:35:33;;;;;;;10.55;8.15;;;;;;;6.23;62.72;99663.00;10479443;28;20051;-66
2022/02/04 03:40:35;;;;;;;9.90;8.00;;;;;;;6.22;62.71;99659.59;10476020;28;20048;-66
2022/02/04 03:45:37;;;;;;;10.68;7.60;;;;;;;6.27;62.50;99664.59;10475456;28;20128;-66
2022/02/04 03:50:38;;;;;;;10.25;7.80;;;;;;;6.33;62.42;99669.50;10475042;28;20050;-66
2022/02/04 03:55:41;;;;;;;9.05;6.68;;;;;;;6.32;62.43;99663.47;10475335;28;20100;-66
2022/02/04 04:00:43;;;;;;;8.60;6.70;;;;;;;6.26;62.72;99658.56;10475906;28;20055;-66
2022/02/04 04:05:49;;;;;;;9.45;7.07;;;;;;;6.32;62.36;99658.28;10469802;28;20920;-67
2022/02/04 04:10:52;;;;;;;9.70;6.95;;;;;;;6.20;62.55;99660.56;10466816;28;20527;-66
2022/02/04 04:15:54;;;;;;;10.10;6.78;;;;;;;6.29;62.24;99652.38;10466817;28;20049;-67
2022/02/04 04:20:56;;;;;;;9.10;6.85;;;;;;;6.27;62.34;99651.59;10468935;28;20215;-66
2022/02/04 04:25:58;;;;;;;8.07;6.10;;;;;;;6.30;62.30;99654.06;10493862;28;20567;-66
2022/02/04 04:30:59;;;;;;;8.75;6.63;;;;;;;6.30;62.32;99654.06;10467669;28;20060;-66
2022/02/04 04:36:01;;;;;;;7.75;5.65;;;;;;;6.35;62.10;99663.31;10474185;28;20143;-67
2022/02/04 04:41:21;;;;;;;7.78;6.10;;;;;;;6.15;62.76;99665.97;10467337;28;20049;-67
2022/02/04 04:47:01;;;;;;;7.93;6.28;;;;;;;6.25;62.89;99669.00;10469250;28;20048;-66
2022/02/04 05:29:15;;;;;;;11.15;9.15;;;;;;;6.32;63.29;99663.47;10473922;28;20056;-67
2022/02/04 05:34:19;;;;;;;10.27;8.05;;;;;;;6.37;63.23;99670.22;10474873;28;20044;-67
2022/02/04 05:39:26;;;;;;;8.63;6.38;;;;;;;6.31;63.33;99668.72;10476133;28;20413;-67
2022/02/04 05:44:29;;;;;;;9.10;6.50;;;;;;;6.38;63.48;99662.34;10474455;28;20048;-67
2022/02/04 05:49:33;;;;;;;9.00;6.80;;;;;;;6.30;63.54;99664.44;10473642;28;20044;-67
2022/02/04 06:00:19;;;;;;;8.45;6.40;;;;;;;6.26;63.78;99663.75;10473151;28;20040;-66
2022/02/04 06:11:05;;;;;;;9.70;6.57;;;;;;;6.29;63.73;99652.38;10472737;28;20151;-67
2022/02/04 06:26:27;;;;;;;8.20;5.82;;;;;;;6.23;63.72;99637.03;10471483;28;20063;-67
2022/02/04 06:31:29;;;;;;;7.47;5.85;;;;;;;6.25;63.79;99643.88;10471852;28;20413;-66
2022/02/04 06:36:30;;;;;;;7.70;5.82;;;;;;;6.37;63.54;99650.25;10471414;28;20048;-66
2022/02/04 06:41:32;;;;;;;11.05;5.05;;;;;;;6.37;63.45;99655.44;10470890;28;20048;-67
2022/02/04 06:46:34;;;;;;;7.05;5.13;;;;;;;6.33;63.33;99654.75;10471888;28;20139;-66
2022/02/04 06:51:35;;;;;;;6.60;5.10;;;;;;;6.40;63.32;99660.50;10470743;28;21029;-66
2022/02/04 06:56:37;;;;;;;8.35;4.82;;;;;;;6.38;63.21;99664.09;10471361;28;20143;-66
2022/02/04 07:01:40;;;;;;;7.97;5.55;;;;;;;6.36;63.34;99656.38;10471259;28;20131;-66
2022/02/04 07:06:51;;;;;;;6.90;5.40;;;;;;;6.31;63.54;99664.38;10468094;28;20044;-67
2022/02/04 07:22:27;;;;;;;7.15;5.18;;;;;;;6.47;63.13;99658.47;10461033;28;20050;-67
2022/02/04 07:27:30;;;;;;;8.18;5.20;;;;;;;6.42;63.17;99668.22;10471139;28;20051;-67
2022/02/04 07:32:42;;;;;;;8.20;5.30;;;;;;;6.52;62.98;99664.28;10472002;28;20058;-67
2022/02/04 07:43:04;;;;;;;7.57;5.03;;;;;;;6.51;62.81;99662.59;10470518;28;20136;-67
2022/02/04 07:48:06;;;;;;;6.90;5.15;;;;;;;6.52;62.81;99651.28;10468130;28;20817;-67
2022/02/04 07:53:08;;;;;;;6.18;4.80;;;;;;;6.64;62.50;99659.34;10468688;28;20431;-67
2022/02/04 07:58:11;;;;;;;8.07;4.65;;;;;;;6.65;62.56;99657.59;10468363;28;20048;-67
2022/02/04 08:03:30;;;;;;;6.60;4.95;;;;;;;6.77;62.26;99649.19;10468907;28;21260;-67
2022/02/04 08:35:15;;;;;;;8.80;6.00;;;;;;;7.07;61.81;99634.69;10467646;28;20059;-66
2022/02/04 08:50:56;;;;;;;7.43;5.97;;;;;;;7.17;62.11;99618.56;10469537;28;20044;-67
2022/02/04 08:55:59;;;;;;;8.38;6.20;;;;;;;7.18;62.31;99619.41;10475178;28;20057;-66
2022/02/04 09:06:08;;;;;;;8.73;5.97;;;;;;;7.19;62.70;99610.66;10474663;28;20055;-66
2022/02/04 09:11:15;;;;;;;9.15;5.93;;;;;;;7.27;62.52;99613.72;10474877;28;20056;-67
2022/02/04 09:26:45;;;;;;;7.60;5.80;;;;;;;7.45;62.43;99594.53;10480985;28;20052;-67
2022/02/04 09:31:47;;;;;;;9.02;5.97;;;;;;;7.37;62.92;99588.06;10475989;28;20493;-67
2022/02/04 09:36:49;;;;;;;8.00;5.35;;;;;;;7.40;62.77;99586.16;10473707;28;20056;-66
2022/02/04 09:41:51;;;;;;;8.10;5.10;;;;;;;7.35;62.56;99585.53;10480384;28;20084;-66
2022/02/04 09:47:20;;;;;;;8.02;5.28;;;;;;;7.26;63.08;99569.59;10472022;28;20056;-66
2022/02/04 10:24:58;;;;;;;4.35;2.78;;;;;;;7.39;61.18;99545.44;10462331;28;20129;-65
2022/02/04 10:30:10;;;;;;;4.22;3.03;;;;;;;7.54;60.39;99549.84;10470211;28;20053;-65
2022/02/04 10:35:23;;;;;;;5.93;2.90;;;;;;;7.49;60.87;99544.03;10472204;28;20052;-65
2022/02/04 10:45:59;;;;;;;5.07;2.90;;;;;;;7.60;61.22;99533.91;10470012;28;20135;-64
2022/02/04 11:07:27;;;;;;;4.63;2.70;;;;;;;7.45;59.80;99500.88;10471416;28;20356;-65
2022/02/04 11:54:54;;;;;;;3.42;1.80;;;;;;;8.08;57.51;99409.75;10499310;28;20674;-65
2022/02/04 12:00:03;;;;;;;2.25;1.50;;;;;;;8.06;57.28;99401.19;10468407;28;20339;-65
2022/02/04 12:05:07;;;;;;;1.58;1.25;;;;;;;8.24;56.78;99390.53;10468628;28;20060;-65
2022/02/04 12:10:11;;;;;;;2.95;1.30;;;;;;;8.54;55.74;99375.69;10468826;28;20053;-65
2022/02/04 12:15:31;;;;;;;2.25;1.20;;;;;;;8.41;55.21;99379.13;10467822;28;20055;-65
2022/02/04 12:20:53;;;;;;;1.98;1.30;;;;;;;8.38;55.63;99361.06;10468668;28;20343;-65
2022/02/04 12:26:01;;;;;;;2.22;1.10;;;;;;;8.41;55.75;99368.69;10467515;28;20082;-65
2022/02/04 12:31:29;;;;;;;1.85;1.00;;;;;;;8.28;54.94;99360.75;10468068;28;20315;-65
2022/02/04 12:36:37;;;;;;;1.92;0.90;;;;;;;8.41;55.83;99350.44;10463487;28;20110;-65
2022/02/04 12:41:44;;;;;;;1.08;0.98;;;;;;;8.48;55.83;99349.16;10468101;28;20052;-65
2022/02/04 12:46:48;;;;;;;1.63;1.00;;;;;;;8.31;57.02;99339.75;10484479;28;20048;-66
2022/02/04 12:52:06;;;;;;;1.00;0.82;;;;;;;8.17;57.02;99320.66;10509423;28;20056;-65
2022/02/04 13:12:49;;;;;;;0.98;0.75;;;;;;;8.25;57.49;99295.00;10466883;28;20048;-65
2022/02/04 13:17:51;;;;;;;0.65;0.65;;;;;;;7.95;57.94;99300.25;10467613;28;20054;-65
2022/02/04 13:22:58;;;;;;;1.10;0.70;;;;;;;7.94;58.34;99294.19;10467566;28;20044;-65
2022/02/04 13:28:02;;;;;;;1.23;0.80;;;;;;;8.09;58.43;99276.81;10466492;28;20048;-65
2022/02/04 13:33:18;;;;;;;1.10;0.73;;;;;;;7.98;58.13;99281.81;10466764;28;20053;-65
2022/02/04 13:38:32;;;;;;;0.77;0.77;;;;;;;7.93;58.47;99269.09;10468358;28;20131;-65
2022/02/04 13:43:41;;;;;;;1.25;0.90;;;;;;;8.01;57.71;99243.44;10473987;28;20416;-65
2022/02/04 13:49:08;;;;;;;1.02;0.90;;;;;;;8.08;57.27;99249.09;10473963;28;20044;-66
2022/02/04 13:55:09;;;;;;;2.15;0.90;;;;;;;8.09;57.12;99235.16;10473747;28;20424;-65
2022/02/04 13:59:57;;;;;;;1.77;1.40;;;;;;;7.86;57.29;99235.69;10479013;28;20154;-65
2022/02/04 14:05:02;;;;;;;3.40;1.70;;;;;;;7.96;57.05;99235.06;10473810;28;20547;-65
2022/02/04 14:10:17;;;;;;;3.28;1.50;;;;;;;7.97;56.26;99234.13;10473018;28;20504;-65
2022/02/04 14:15:26;;;;;;;7.45;3.45;;;;;;;8.01;56.47;99224.38;10473051;28;20053;-66
2022/02/04 14:20:27;;;;;;;7.30;3.25;;;;;;;8.10;56.28;99212.56;10473247;28;20450;-65
2022/02/04 14:25:29;;;;;;;7.78;3.80;;;;;;;8.14;56.28;99216.69;10472316;28;20040;-65
2022/02/04 14:30:36;;;;;;;14.95;6.80;;;;;;;7.97;56.86;99215.91;10473108;28;20063;-65
2022/02/04 14:51:48;;;;;;;3.30;2.00;;;;;;;7.83;57.71;99191.63;10472037;28;20053;-66
2022/02/04 15:02:12;;;;;;;2.33;1.27;;;;;;;7.87;57.22;99173.13;10470388;28;20052;-66
2022/02/04 15:07:14;;;;;;;1.00;0.93;;;;;;;7.74;56.72;99181.75;10476780;28;20042;-66
2022/02/04 15:12:16;;;;;;;1.27;0.95;;;;;;;7.83;56.89;99169.00;10470000;28;20051;-66
2022/02/04 15:17:18;;;;;;;0.98;0.90;;;;;;;7.84;56.81;99188.94;10470815;28;20052;-66
2022/02/04 15:22:23;;;;;;;0.90;0.90;;;;;;;7.82;56.92;99192.53;10470299;28;20138;-66
2022/02/04 15:27:27;;;;;;;1.45;1.10;;;;;;;7.66;58.42;99205.66;10470297;28;20135;-66
2022/02/04 15:32:29;;;;;;;1.02;0.80;;;;;;;7.38;59.81;99197.78;10469575;28;20139;-66
2022/02/04 15:37:31;;;;;;;1.17;0.80;;;;;;;7.44;60.45;99165.38;10468837;28;20036;-66
2022/02/04 15:42:35;;;;;;;1.45;0.98;;;;;;;7.43;61.10;99185.34;10469189;28;20058;-66
2022/02/04 15:47:53;;;;;;;1.42;1.00;;;;;;;7.37;61.30;99172.69;10469074;28;20049;-66
2022/02/04 15:58:32;;;;;;;1.35;0.90;;;;;;;7.13;61.38;99159.38;10469716;28;20275;-66
2022/02/04 16:08:33;;;;;;;2.75;1.10;;;;;;;7.28;60.99;99118.63;10509983;28;20044;-65
2022/02/04 16:25:05;;;;;;;1.13;0.95;;;;;;;7.19;60.51;99117.41;10319357;28;20282;-66
2022/02/04 16:30:07;;;;;;;1.88;1.00;;;;;;;7.21;60.79;99122.50;10443927;28;20060;-66
2022/02/04 16:35:09;;;;;;;1.63;0.80;;;;;;;7.23;60.57;99128.44;10464261;28;20493;-65
2022/02/04 16:40:16;;;;;;;1.15;0.95;;;;;;;7.15;60.91;99112.47;10466638;28;20055;-65
2022/02/04 16:45:18;;;;;;;1.70;0.90;;;;;;;7.03;61.38;99121.81;10467130;28;20060;-65
2022/02/04 16:50:21;;;;;;;1.15;1.00;;;;;;;6.95;61.81;99121.44;10466520;28;20056;-65
2022/02/04 16:55:23;;;;;;;3.80;1.42;;;;;;;6.96;61.72;99115.28;10466594;28;20489;-65
2022/02/04 17:00:26;;;;;;;4.70;1.75;;;;;;;7.03;61.80;99108.81;10465920;28;20070;-66
2022/02/04 17:05:39;;;;;;;3.28;1.30;;;;;;;7.00;61.66;99105.53;10465471;28;20053;-65
2022/02/04 17:10:44;;;;;;;4.33;1.30;;;;;;;6.84;62.34;99112.56;10465506;28;20215;-66
2022/02/04 17:15:45;;;;;;;6.28;1.30;;;;;;;6.94;62.18;99129.31;10471149;28;20057;-66
2022/02/04 17:20:48;;;;;;;4.07;1.33;;;;;;;7.09;61.79;99126.66;10473332;28;20381;-66
2022/02/04 17:25:50;;;;;;;2.85;1.20;;;;;;;7.11;61.87;99129.16;10474120;28;20074;-66
2022/02/04 17:30:54;;;;;;;1.40;0.90;;;;;;;7.07;62.16;99115.53;10473821;28;20064;-66
2022/02/04 17:35:56;;;;;;;2.03;1.23;;;;;;;7.22;61.96;99107.75;10472965;28;20090;-66
2022/02/04 17:40:59;;;;;;;3.13;1.13;;;;;;;7.19;62.31;99113.97;10468206;28;20085;-65
2022/02/04 17:46:00;;;;;;;2.38;1.05;;;;;;;7.30;62.04;99108.13;10472246;28;20530;-66
2022/02/04 17:51:21;;;;;;;2.85;1.42;;;;;;;7.20;62.32;99116.47;10470689;28;20830;-66
2022/02/04 17:56:35;;;;;;;5.60;2.10;;;;;;;7.27;62.24;99109.13;10467222;28;20178;-66
2022/02/04 18:02:05;;;;;;;1.85;1.23;;;;;;;7.32;62.34;99119.28;10466311;28;20486;-65
2022/02/04 18:07:22;;;;;;;1.85;1.00;;;;;;;7.38;62.18;99126.72;10471373;28;20140;-65
2022/02/04 18:12:25;;;;;;;3.53;1.38;;;;;;;7.20;62.80;99120.84;10472637;28;20053;-65
2022/02/04 18:17:28;;;;;;;3.03;1.33;;;;;;;7.37;62.76;99148.44;10472061;28;20070;-65
2022/02/04 18:22:30;;;;;;;2.67;1.30;;;;;;;7.42;63.28;99175.88;10472321;28;20129;-65
2022/02/04 18:27:32;;;;;;;2.15;1.05;;;;;;;7.16;64.83;99259.78;10471782;28;20045;-65
2022/02/04 18:32:35;;;;;;;5.43;1.10;;;;;;;6.73;64.27;99325.44;10474979;28;20167;-65
2022/02/04 18:37:41;;;;;;;2.72;1.15;;;;;;;6.38;64.30;99334.25;10469563;28;20055;-65
2022/02/04 18:43:11;;;;;;;4.35;2.00;;;;;;;6.24;63.80;99353.97;10469890;28;20054;-65
2022/02/04 18:48:16;;;;;;;2.90;1.60;;;;;;;5.85;64.31;99371.53;10470137;28;20055;-65
2022/02/04 18:58:25;;;;;;;2.15;1.40;;;;;;;5.37;63.60;99423.16;10470621;28;20123;-65
2022/02/04 19:03:52;;;;;;;1.92;1.25;;;;;;;5.04;63.30;99428.16;10470241;28;20066;-65
2022/02/04 19:08:56;;;;;;;4.80;1.50;;;;;;;4.91;63.28;99447.72;10467921;28;20131;-66
2022/02/04 19:14:05;;;;;;;2.15;1.40;;;;;;;4.67;63.75;99457.44;10474765;28;20768;-67
2022/02/04 19:24:13;;;;;;;1.80;1.40;;;;;;;4.74;63.77;99491.66;10470193;28;20057;-64
2022/02/04 19:29:14;;;;;;;1.35;1.23;;;;;;;4.78;63.24;99498.41;10468316;28;20415;-65
2022/02/04 19:34:17;;;;;;;1.65;1.30;;;;;;;4.69;62.22;99511.75;10468974;28;20056;-65
2022/02/04 19:39:19;;;;;;;2.67;1.52;;;;;;;4.76;61.86;99523.53;10468332;28;20040;-66
2022/02/04 19:44:20;;;;;;;3.45;1.60;;;;;;;4.76;61.59;99528.69;10475881;28;20423;-66
2022/02/04 19:49:25;;;;;;;2.63;1.60;;;;;;;4.81;61.50;99544.06;10510022;28;20155;-65
2022/02/04 19:54:44;;;;;;;2.60;1.60;;;;;;;4.77;60.90;99558.91;10495801;28;20500;-65
2022/02/04 20:26:29;;;;;;;4.13;1.80;;;;;;;4.43;62.11;99633.69;10466953;28;20044;-65
2022/02/04 20:31:30;;;;;;;3.00;1.75;;;;;;;4.30;60.95;99642.84;10467211;28;20507;-65
2022/02/04 20:36:32;;;;;;;3.08;1.60;;;;;;;4.22;61.06;99666.44;10466965;28;20049;-65
2022/02/04 20:41:34;;;;;;;5.18;1.60;;;;;;;4.10;60.72;99679.84;10482412;28;20050;-65
2022/02/04 20:46:37;;;;;;;4.22;1.52;;;;;;;3.86;60.91;99694.50;10492790;28;20052;-64
2022/02/04 20:51:38;;;;;;;3.47;1.65;;;;;;;3.72;61.40;99711.41;10516761;28;20058;-66
2022/02/04 20:56:43;;;;;;;6.53;1.85;;;;;;;3.64;60.88;99728.94;10486512;28;20044;-65
2022/02/04 21:01:45;;;;;;;5.70;2.20;;;;;;;3.77;60.97;99727.59;10475101;28;20049;-66
2022/02/04 21:06:58;;;;;;;11.23;2.03;;;;;;;3.95;60.33;99732.13;10503520;28;20107;-65
2022/02/04 21:17:22;;;;;;;7.27;2.17;;;;;;;3.92;59.48;99745.19;10478267;28;20493;-65
2022/02/04 21:22:24;;;;;;;7.57;2.33;;;;;;;3.91;59.59;99761.59;10472928;28;20460;-65
2022/02/04 21:27:28;;;;;;;8.23;2.13;;;;;;;3.68;59.75;99762.38;10473393;28;20056;-65
2022/02/04 21:32:30;;;;;;;5.85;1.98;;;;;;;3.51;59.99;99776.78;10471876;28;20416;-65
2022/02/04 21:37:33;;;;;;;8.60;2.00;;;;;;;3.41;60.19;99796.94;10472906;28;20050;-65
2022/02/04 21:42:35;;;;;;;8.50;2.20;;;;;;;3.31;59.94;99800.72;10472928;28;20594;-65
2022/02/04 21:47:45;;;;;;;8.80;1.90;;;;;;;3.18;60.16;99807.16;10473033;28;20063;-64
2022/02/04 21:52:48;;;;;;;7.30;2.20;;;;;;;3.15;60.37;99814.16;10473164;28;20056;-64
2022/02/04 21:57:50;;;;;;;5.95;2.10;;;;;;;3.04;60.38;99812.78;10512372;28;21196;-66
2022/02/04 22:02:52;;;;;;;6.43;2.30;;;;;;;3.03;60.15;99821.41;10474664;28;20054;-64
2022/02/04 22:07:58;;;;;;;3.67;1.63;;;;;;;2.95;60.33;99831.13;10472128;28;20052;-65
2022/02/04 22:23:18;;;;;;;9.13;2.13;;;;;;;2.79;60.94;99855.72;10472869;28;20052;-66
2022/02/04 22:28:22;;;;;;;9.40;2.35;;;;;;;2.70;61.00;99849.97;10471230;28;20052;-66
2022/02/04 22:33:28;;;;;;;9.88;2.00;;;;;;;2.97;60.72;99862.06;10469802;28;20048;-66
2022/02/04 22:59:12;;;;;;;7.28;2.10;;;;;;;2.49;61.33;99907.38;10468977;28;20344;-66
2022/02/04 23:04:20;;;;;;;6.90;2.10;;;;;;;2.46;61.46;99920.38;10470258;28;20113;-65
2022/02/04 23:09:27;;;;;;;7.07;1.95;;;;;;;2.46;61.21;99920.38;10470766;28;20049;-65
2022/02/04 23:14:44;;;;;;;10.77;2.33;;;;;;;2.33;61.41;99934.50;10469916;28;20632;-65
2022/02/04 23:19:57;;;;;;;7.10;2.25;;;;;;;2.31;61.45;99944.84;10469584;28;20238;-65
2022/02/04 23:51:17;;;;;;;8.73;2.13;;;;;;;2.05;61.92;99962.72;10473698;28;20678;-66
2022/02/04 23:56:20;;;;;;;7.70;2.28;;;;;;;2.03;62.03;99962.75;10474105;28;20404;-66
